Time;durP1;ratioP1;P1;durP2;ratioP2;P2;SDS_P1;SDS_P2;PMS_P1;PMS_P2;Temp;Humidity;BMP_temperature;BMP_pressure;BME280_temperature;BME280_humidity;BME280_pressure;Samples;Min_cycle;Max_cycle;Signal;HPM_P1;HPM_P2
2023/08/27 00:02:21;;;;;;;5.93;2.47;;;;;;;-142.75;100.00;75993.56;5019890;28;20025;-63
2023/08/27 00:04:46;;;;;;;6.53;3.05;;;;;;;-142.75;100.00;75989.63;5020426;28;20021;-62
2023/08/27 00:07:11;;;;;;;5.35;2.47;;;;;;;-142.75;100.00;75989.63;5025136;28;20037;-62
2023/08/27 00:09:37;;;;;;;5.40;2.35;;;;;;;-142.75;100.00;75991.59;5025262;28;20021;-62
2023/08/27 00:12:03;;;;;;;5.78;2.80;;;;;;;-142.75;100.00;75983.72;5025572;28;20021;-62
2023/08/27 00:14:30;;;;;;;5.55;2.55;;;;;;;-142.75;100.00;75987.66;5025843;28;20702;-60
2023/08/27 00:16:55;;;;;;;5.75;3.25;;;;;;;-142.75;100.00;75975.84;5027012;28;20649;-63
2023/08/27 00:19:21;;;;;;;5.88;2.67;;;;;;;-142.75;100.00;75977.81;5027321;28;20052;-62
2023/08/27 00:21:48;;;;;;;8.20;3.45;;;;;;;-142.75;100.00;75981.75;5026373;28;20026;-62
2023/08/27 00:24:13;;;;;;;6.68;3.42;;;;;;;-142.75;100.00;75977.81;5026221;28;20037;-62
2023/08/27 00:26:38;;;;;;;6.90;3.50;;;;;;;-142.75;100.00;75969.94;5025765;28;20036;-61
2023/08/27 00:29:04;;;;;;;5.57;4.07;;;;;;;-142.75;100.00;75971.91;5027962;28;20033;-62
2023/08/27 00:31:29;;;;;;;7.28;3.78;;;;;;;-142.75;100.00;75969.94;5027922;28;20621;-61
2023/08/27 00:33:55;;;;;;;8.63;4.10;;;;;;;-142.75;100.00;75956.19;5027582;28;20034;-61
2023/08/27 00:36:20;;;;;;;8.45;3.78;;;;;;;-142.75;100.00;75942.41;5026743;28;20028;-63
2023/08/27 00:38:45;;;;;;;10.18;4.57;;;;;;;-142.75;100.00;75946.34;5026350;28;20080;-62
2023/08/27 00:41:11;;;;;;;8.20;4.50;;;;;;;-142.75;100.00;75926.66;5025497;28;20026;-63
2023/08/27 00:43:36;;;;;;;6.85;4.53;;;;;;;-142.75;100.00;75922.72;5029579;28;20025;-63
2023/08/27 00:46:02;;;;;;;9.60;4.90;;;;;;;-142.75;100.00;75903.03;5024927;28;20030;-63
2023/08/27 00:48:28;;;;;;;8.77;5.70;;;;;;;-142.75;100.00;75910.91;5026106;28;20045;-63
2023/08/27 00:50:53;;;;;;;8.82;4.63;;;;;;;-142.75;100.00;75897.13;5026592;28;20501;-63
2023/08/27 00:53:19;;;;;;;9.68;5.43;;;;;;;-142.75;100.00;75893.19;5027227;28;20029;-64
2023/08/27 00:55:44;;;;;;;10.63;5.53;;;;;;;-142.75;100.00;75881.38;5026625;28;20507;-63
2023/08/27 00:58:10;;;;;;;7.13;4.78;;;;;;;-142.75;100.00;75891.22;5027253;28;20041;-63
2023/08/27 01:00:36;;;;;;;6.85;4.63;;;;;;;-142.75;100.00;75877.44;5027801;28;20025;-63
2023/08/27 01:03:01;;;;;;;8.25;4.88;;;;;;;-142.75;100.00;75869.56;5027145;28;20022;-63
2023/08/27 01:05:27;;;;;;;10.77;5.35;;;;;;;-142.75;100.00;75877.44;5026897;28;20303;-63
2023/08/27 01:08:03;;;;;;;9.60;4.97;;;;;;;-142.75;100.00;75893.19;5026929;28;20025;-63
2023/08/27 01:10:57;;;;;;;9.50;4.78;;;;;;;-142.75;100.00;75885.31;5027029;28;20068;-63
2023/08/27 01:13:52;;;;;;;11.48;5.32;;;;;;;-142.75;100.00;75881.38;5025758;28;20025;-62
2023/08/27 01:16:20;;;;;;;7.50;4.45;;;;;;;-142.75;100.00;75881.38;5026413;28;20033;-64
2023/08/27 01:18:48;;;;;;;9.13;5.20;;;;;;;-142.75;100.00;75881.38;5026812;28;20520;-63
2023/08/27 01:21:17;;;;;;;7.13;4.72;;;;;;;-142.75;100.00;75871.53;5026400;28;20440;-63
2023/08/27 01:23:43;;;;;;;9.00;5.47;;;;;;;-142.75;100.00;75881.38;5027007;28;20040;-63
2023/08/27 01:26:09;;;;;;;6.93;4.50;;;;;;;-142.75;100.00;75891.22;5026663;28;22450;-63
2023/08/27 01:28:43;;;;;;;8.95;4.85;;;;;;;-142.75;100.00;75889.25;5026914;28;20055;-63
2023/08/27 01:31:14;;;;;;;9.25;5.15;;;;;;;-142.75;100.00;75883.34;5027089;28;20025;-63
2023/08/27 01:33:40;;;;;;;9.00;5.25;;;;;;;-142.75;100.00;75891.22;5026635;28;20783;-63
2023/08/27 01:36:07;;;;;;;7.15;4.90;;;;;;;-142.75;100.00;75887.28;5026431;28;20029;-63
2023/08/27 01:38:33;;;;;;;14.18;5.55;;;;;;;-142.75;100.00;75883.34;5026733;28;20025;-63
2023/08/27 01:40:58;;;;;;;7.15;4.90;;;;;;;-142.75;100.00;75879.41;5026327;28;20505;-63
2023/08/27 01:43:24;;;;;;;8.20;5.50;;;;;;;-142.75;100.00;75889.25;5026514;28;20609;-63
2023/08/27 01:45:50;;;;;;;8.52;4.90;;;;;;;-142.75;100.00;75873.50;5025771;28;20029;-63
2023/08/27 01:48:15;;;;;;;9.18;4.57;;;;;;;-142.75;100.00;75877.44;5026453;28;20060;-63
2023/08/27 01:50:41;;;;;;;8.30;4.63;;;;;;;-142.75;100.00;75891.22;5026564;28;20080;-63
2023/08/27 01:53:06;;;;;;;9.32;5.18;;;;;;;-142.75;100.00;75885.31;5027048;28;20424;-63
2023/08/27 01:55:31;;;;;;;7.45;5.05;;;;;;;-142.75;100.00;75865.63;5026141;28;20120;-63
2023/08/27 01:57:57;;;;;;;10.27;4.70;;;;;;;-142.75;100.00;75847.94;5033067;28;20476;-63
2023/08/27 02:00:22;;;;;;;10.45;5.28;;;;;;;-142.75;100.00;75853.84;5026317;28;20026;-63
2023/08/27 02:02:47;;;;;;;8.13;4.20;;;;;;;-142.75;100.00;75838.09;5031663;28;20033;-63
2023/08/27 02:05:13;;;;;;;13.73;4.53;;;;;;;-142.75;100.00;75824.31;5025738;28;20029;-63
2023/08/27 02:07:39;;;;;;;9.00;4.53;;;;;;;-142.75;100.00;75824.31;5026378;28;20036;-63
2023/08/27 02:10:09;;;;;;;6.72;4.10;;;;;;;-142.75;100.00;75822.34;5025843;28;20025;-63
2023/08/27 02:12:35;;;;;;;6.03;4.22;;;;;;;-142.75;100.00;75814.47;5026069;28;20104;-63
2023/08/27 02:15:03;;;;;;;8.65;4.22;;;;;;;-142.75;100.00;75814.47;5029794;28;20033;-63
2023/08/27 02:17:28;;;;;;;8.35;3.88;;;;;;;-142.75;100.00;75812.50;5024722;28;20029;-63
2023/08/27 02:19:53;;;;;;;9.68;3.70;;;;;;;-142.75;100.00;75798.72;5025748;28;20646;-63
2023/08/27 02:22:19;;;;;;;9.35;3.65;;;;;;;-142.75;100.00;75804.63;5025799;28;20037;-63
2023/08/27 02:24:44;;;;;;;6.20;3.78;;;;;;;-142.75;100.00;75798.72;5025745;28;20072;-64
2023/08/27 02:27:09;;;;;;;8.10;3.92;;;;;;;-142.75;100.00;75800.69;5025639;28;20052;-64
2023/08/27 02:29:35;;;;;;;7.18;3.78;;;;;;;-142.75;100.00;75800.69;5024928;28;20563;-64
2023/08/27 02:32:01;;;;;;;10.73;4.00;;;;;;;-142.75;100.00;75822.34;5026062;28;20053;-64
2023/08/27 02:34:27;;;;;;;7.70;3.80;;;;;;;-142.75;100.00;75822.34;5025426;28;20116;-63
2023/08/27 02:36:52;;;;;;;11.35;4.13;;;;;;;-142.75;100.00;75834.16;5025278;28;20029;-64
2023/08/27 02:39:17;;;;;;;6.07;3.40;;;;;;;-142.75;100.00;75820.38;5025135;28;20039;-64
2023/08/27 02:41:43;;;;;;;14.48;3.80;;;;;;;-142.75;100.00;75834.16;5025112;28;20448;-64
2023/08/27 02:44:08;;;;;;;8.68;3.63;;;;;;;-142.75;100.00;75822.34;5025049;28;20536;-63
2023/08/27 02:46:33;;;;;;;6.82;3.58;;;;;;;-142.75;100.00;75845.97;5025430;28;20032;-64
2023/08/27 02:48:59;;;;;;;7.82;4.30;;;;;;;-142.75;100.00;75826.28;5025193;28;20116;-64
2023/08/27 02:51:24;;;;;;;7.45;3.65;;;;;;;-142.75;100.00;75818.41;5025130;28;20076;-64
2023/08/27 02:53:52;;;;;;;6.90;3.35;;;;;;;-142.75;100.00;75822.34;5025194;28;20025;-63
2023/08/27 02:56:18;;;;;;;9.77;3.67;;;;;;;-142.75;100.00;75806.59;5024871;28;20493;-64
2023/08/27 02:58:43;;;;;;;9.50;3.33;;;;;;;-142.75;100.00;75814.47;5024939;28;20030;-64
2023/08/27 03:01:09;;;;;;;8.52;3.95;;;;;;;-142.75;100.00;75802.66;5025332;28;20037;-63
2023/08/27 03:03:35;;;;;;;8.50;3.67;;;;;;;-142.75;100.00;75810.53;5023954;28;20056;-63
2023/08/27 03:06:00;;;;;;;9.50;3.67;;;;;;;-142.75;100.00;75814.47;5024877;28;20104;-63
2023/08/27 03:08:26;;;;;;;5.88;3.53;;;;;;;-142.75;100.00;75816.44;5024858;28;20087;-64
2023/08/27 03:10:51;;;;;;;6.93;4.10;;;;;;;-142.75;100.00;75814.47;5024891;28;20496;-63
2023/08/27 03:13:16;;;;;;;9.30;3.70;;;;;;;-142.75;100.00;75822.34;5024660;28;20021;-63
2023/08/27 03:15:42;;;;;;;6.32;3.85;;;;;;;-142.75;100.00;75812.50;5024400;28;20451;-63
2023/08/27 03:18:07;;;;;;;7.18;3.55;;;;;;;-142.75;100.00;75802.66;5021012;28;20029;-64
2023/08/27 03:20:32;;;;;;;9.55;4.05;;;;;;;-142.75;100.00;75790.84;5028055;28;20578;-64
2023/08/27 03:22:58;;;;;;;9.60;4.15;;;;;;;-142.75;100.00;75794.78;5023814;28;20168;-64
2023/08/27 03:25:23;;;;;;;5.55;3.20;;;;;;;-142.75;100.00;75781.00;5021547;28;20029;-63
2023/08/27 03:27:48;;;;;;;7.78;3.70;;;;;;;-142.75;100.00;75779.03;5027836;28;20041;-64
2023/08/27 03:30:14;;;;;;;8.70;3.85;;;;;;;-142.75;100.00;75771.16;5023942;28;20112;-63
2023/08/27 03:32:39;;;;;;;8.38;3.60;;;;;;;-142.75;100.00;75767.22;5024160;28;20017;-61
2023/08/27 03:35:05;;;;;;;5.97;3.35;;;;;;;-142.75;100.00;75769.19;5031136;28;20034;-63
2023/08/27 03:37:30;;;;;;;5.22;2.50;;;;;;;-142.75;100.00;75798.72;5022927;28;20209;-64
2023/08/27 03:39:56;;;;;;;4.60;1.60;;;;;;;-142.75;100.00;75851.88;5022816;28;20029;-63
2023/08/27 03:42:21;;;;;;;1.55;0.80;;;;;;;-142.75;100.00;75912.88;5023797;28;20037;-64
2023/08/27 03:44:46;;;;;;;1.90;0.60;;;;;;;-142.75;100.00;75934.53;5024125;28;20060;-64
2023/08/27 03:47:12;;;;;;;5.38;0.70;;;;;;;-142.75;100.00;75960.13;5024387;28;20128;-64
2023/08/27 03:49:37;;;;;;;2.25;0.70;;;;;;;-142.75;100.00;75950.28;5024527;28;20064;-64
2023/08/27 03:52:03;;;;;;;1.95;0.70;;;;;;;-142.75;100.00;75960.13;5024479;28;20026;-64
2023/08/27 03:54:30;;;;;;;6.30;0.82;;;;;;;-142.75;100.00;75967.97;5024433;28;20029;-64
2023/08/27 03:56:55;;;;;;;2.20;0.75;;;;;;;-142.75;100.00;75956.19;5024046;28;20040;-64
2023/08/27 03:59:21;;;;;;;5.15;0.73;;;;;;;-142.75;100.00;75936.50;5024325;28;20571;-64
2023/08/27 04:01:47;;;;;;;2.95;0.77;;;;;;;-142.75;100.00;75936.50;5024683;28;20033;-64
2023/08/27 04:04:12;;;;;;;3.72;0.88;;;;;;;-142.75;100.00;75936.50;5022642;28;20124;-64
2023/08/27 04:06:37;;;;;;;4.63;0.88;;;;;;;-142.75;100.00;75932.56;5032166;28;20082;-64
2023/08/27 04:09:04;;;;;;;3.22;0.68;;;;;;;-142.75;100.00;75948.31;5024295;28;20052;-64
2023/08/27 04:11:30;;;;;;;3.47;0.55;;;;;;;-142.75;100.00;75956.19;5024222;28;20033;-64
2023/08/27 04:13:55;;;;;;;2.20;0.65;;;;;;;-142.75;100.00;75971.91;5024200;28;20018;-63
2023/08/27 04:16:21;;;;;;;1.92;0.47;;;;;;;-142.75;100.00;75967.97;5024114;28;20129;-63
2023/08/27 04:18:46;;;;;;;5.55;1.08;;;;;;;-142.75;100.00;75987.66;5022898;28;20029;-64
2023/08/27 04:21:11;;;;;;;2.55;0.77;;;;;;;-142.75;100.00;75975.84;5024405;28;20108;-64
2023/08/27 04:23:37;;;;;;;1.10;0.40;;;;;;;-142.75;100.00;75975.84;5024439;28;20142;-64
2023/08/27 04:26:03;;;;;;;0.75;0.20;;;;;;;-142.75;100.00;75977.81;5023784;28;20029;-64
2023/08/27 04:28:31;;;;;;;1.42;0.40;;;;;;;-142.75;100.00;76011.28;5024125;28;20680;-64
2023/08/27 04:30:57;;;;;;;2.53;0.40;;;;;;;-142.75;100.00;76027.03;5024304;28;20026;-64
2023/08/27 04:33:22;;;;;;;1.38;0.20;;;;;;;-142.75;100.00;76042.78;5024262;28;20470;-64
2023/08/27 04:35:49;;;;;;;3.40;1.23;;;;;;;-142.75;100.00;76062.47;5023508;28;20025;-64
2023/08/27 04:38:15;;;;;;;2.75;0.50;;;;;;;-142.75;100.00;76058.53;5024004;28;20029;-63
2023/08/27 04:40:41;;;;;;;2.35;0.63;;;;;;;-142.75;100.00;76052.63;5023747;28;20083;-63
2023/08/27 04:43:06;;;;;;;5.63;0.40;;;;;;;-142.75;100.00;76052.63;5024023;28;20304;-64
2023/08/27 04:45:31;;;;;;;1.50;0.40;;;;;;;-142.75;100.00;76062.47;5023607;28;20112;-64
2023/08/27 04:47:57;;;;;;;1.83;0.60;;;;;;;-142.75;100.00;76066.41;5023899;28;20037;-63
2023/08/27 04:50:23;;;;;;;2.42;0.40;;;;;;;-142.75;100.00;76091.97;5023810;28;20108;-64
2023/08/27 04:52:48;;;;;;;1.27;0.30;;;;;;;-142.75;100.00;76070.34;5026721;28;20148;-64
2023/08/27 04:55:13;;;;;;;1.63;0.50;;;;;;;-142.75;100.00;76070.34;5027205;28;20029;-64
2023/08/27 04:57:38;;;;;;;2.30;0.60;;;;;;;-142.75;100.00;76048.69;5027319;28;20057;-64
2023/08/27 05:00:09;;;;;;;2.60;0.63;;;;;;;-142.75;100.00;76058.53;5027469;28;20068;-64
2023/08/27 05:02:35;;;;;;;2.95;0.90;;;;;;;-142.75;100.00;76054.59;5027747;28;20033;-64
2023/08/27 05:05:01;;;;;;;4.30;1.38;;;;;;;-142.75;100.00;76046.72;5027007;28;20025;-64
2023/08/27 05:07:27;;;;;;;1.83;0.80;;;;;;;-142.75;100.00;76044.75;5027024;28;20040;-64
2023/08/27 05:09:52;;;;;;;1.95;0.90;;;;;;;-142.75;100.00;76034.91;5026986;28;20496;-64
2023/08/27 05:12:17;;;;;;;5.55;0.85;;;;;;;-142.75;100.00;76038.84;5027113;28;20113;-64
2023/08/27 05:14:43;;;;;;;2.95;0.80;;;;;;;-142.75;100.00;76054.59;5026013;28;20108;-64
2023/08/27 05:17:08;;;;;;;2.45;0.63;;;;;;;-142.75;100.00;76050.66;5027150;28;20055;-64
2023/08/27 05:19:34;;;;;;;1.50;0.50;;;;;;;-142.75;100.00;76038.84;5026955;28;20025;-64
2023/08/27 05:22:02;;;;;;;2.13;0.88;;;;;;;-142.75;100.00;76034.91;5026931;28;20340;-64
2023/08/27 05:24:28;;;;;;;3.58;1.10;;;;;;;-142.75;100.00;76029.00;5026979;28;20033;-63
2023/08/27 05:26:53;;;;;;;3.85;1.02;;;;;;;-142.75;100.00;76017.19;5026679;28;20037;-64
2023/08/27 05:29:19;;;;;;;5.38;1.98;;;;;;;-142.75;100.00;76007.34;5027057;28;20116;-63
2023/08/27 05:31:44;;;;;;;3.20;1.10;;;;;;;-142.75;100.00;76007.34;5026907;28;20025;-64
2023/08/27 05:34:10;;;;;;;2.83;1.20;;;;;;;-142.75;100.00;75999.47;5026729;28;20053;-63
2023/08/27 05:36:35;;;;;;;5.32;1.70;;;;;;;-142.75;100.00;75995.53;5026498;28;20021;-64
2023/08/27 05:39:00;;;;;;;3.10;1.73;;;;;;;-142.75;100.00;75985.69;5026481;28;20032;-64
2023/08/27 05:41:26;;;;;;;4.13;1.83;;;;;;;-142.75;100.00;75969.94;5026444;28;20033;-64
2023/08/27 05:43:53;;;;;;;4.60;2.30;;;;;;;-142.75;100.00;75950.28;5025138;28;20061;-64
2023/08/27 05:46:18;;;;;;;7.68;2.60;;;;;;;-142.75;100.00;75934.53;5026788;28;20036;-63
2023/08/27 05:48:43;;;;;;;7.80;2.97;;;;;;;-142.75;100.00;75924.69;5027085;28;20031;-63
2023/08/27 05:51:09;;;;;;;6.85;3.03;;;;;;;-142.75;100.00;75908.94;5027193;28;20494;-64
2023/08/27 05:53:34;;;;;;;7.15;3.17;;;;;;;-142.75;100.00;75910.91;5026470;28;20041;-63
2023/08/27 05:56:00;;;;;;;6.82;3.60;;;;;;;-142.75;100.00;75881.38;5026316;28;20112;-64
2023/08/27 05:58:25;;;;;;;9.80;4.35;;;;;;;-142.75;100.00;75851.88;5026713;28;20096;-63
2023/08/27 06:00:54;;;;;;;8.60;4.03;;;;;;;-142.75;100.00;75814.47;5026463;28;20109;-63
2023/08/27 06:03:20;;;;;;;9.43;4.35;;;;;;;-142.75;100.00;75812.50;5026495;28;20025;-63
2023/08/27 06:05:46;;;;;;;9.80;5.03;;;;;;;-142.75;100.00;75804.63;5025754;28;20080;-63
2023/08/27 06:08:11;;;;;;;8.75;4.15;;;;;;;-142.75;100.00;75792.81;5025991;28;20029;-63
2023/08/27 06:10:39;;;;;;;9.52;4.70;;;;;;;-142.75;100.00;75777.06;5026032;28;20037;-63
2023/08/27 06:13:04;;;;;;;13.15;4.90;;;;;;;-142.75;100.00;75761.34;5025934;28;20025;-63
2023/08/27 06:15:32;;;;;;;10.35;5.22;;;;;;;-142.75;100.00;75753.47;5025498;28;20033;-63
2023/08/27 06:18:02;;;;;;;12.20;5.47;;;;;;;-142.75;100.00;75763.28;5026509;28;20079;-62
2023/08/27 06:20:28;;;;;;;12.23;5.45;;;;;;;-142.75;100.00;75751.50;5025872;28;20029;-62
2023/08/27 06:22:53;;;;;;;11.25;5.10;;;;;;;-142.75;100.00;75731.81;5025404;28;20040;-63
2023/08/27 06:25:21;;;;;;;8.80;5.13;;;;;;;-142.75;100.00;75718.03;5026045;28;20102;-62
2023/08/27 06:27:46;;;;;;;9.80;4.82;;;;;;;-142.75;100.00;75702.28;5025942;28;20029;-62
2023/08/27 06:30:11;;;;;;;11.70;5.55;;;;;;;-142.75;100.00;75692.44;5026170;28;20512;-63
2023/08/27 06:32:37;;;;;;;13.40;5.35;;;;;;;-142.75;100.00;75660.97;5026647;28;20100;-62
2023/08/27 06:35:03;;;;;;;10.18;5.93;;;;;;;-142.75;100.00;75657.03;5022495;28;20102;-62
2023/08/27 06:37:29;;;;;;;12.02;6.97;;;;;;;-142.75;100.00;75643.25;5022021;28;20029;-62
2023/08/27 06:39:54;;;;;;;10.52;5.70;;;;;;;-142.75;100.00;75639.31;5024237;28;20033;-64
2023/08/27 06:42:20;;;;;;;11.98;5.95;;;;;;;-142.75;100.00;75629.47;4991012;28;20397;-62
2023/08/27 06:44:45;;;;;;;10.90;7.45;;;;;;;-142.75;100.00;75627.50;5023202;28;20068;-61
2023/08/27 06:47:11;;;;;;;11.13;6.80;;;;;;;-142.75;100.00;75635.38;5030732;28;20107;-62
2023/08/27 06:49:36;;;;;;;12.13;7.43;;;;;;;-142.75;100.00;75641.28;5026689;28;20029;-63
2023/08/27 06:52:02;;;;;;;12.77;6.85;;;;;;;-142.75;100.00;75682.59;5024640;28;20033;-62
2023/08/27 06:54:27;;;;;;;10.75;6.60;;;;;;;-142.75;100.00;75668.84;5023595;28;20032;-62
2023/08/27 06:56:52;;;;;;;12.65;7.47;;;;;;;-142.75;100.00;75660.97;5022993;28;20029;-63
2023/08/27 06:59:18;;;;;;;11.15;6.22;;;;;;;-142.75;100.00;75668.84;5024430;28;20112;-63
2023/08/27 07:01:43;;;;;;;8.02;6.00;;;;;;;-142.75;100.00;75662.94;5025260;28;20117;-62
2023/08/27 07:04:08;;;;;;;11.45;6.00;;;;;;;-142.75;100.00;75660.97;5025243;28;20048;-62
2023/08/27 07:06:34;;;;;;;10.60;6.20;;;;;;;-142.75;100.00;75657.03;5025078;28;20064;-62
2023/08/27 07:09:00;;;;;;;9.27;6.25;;;;;;;-142.75;100.00;75629.47;5025015;28;20509;-62
2023/08/27 07:11:26;;;;;;;10.30;7.13;;;;;;;-142.75;100.00;75647.19;5024871;28;20044;-62
2023/08/27 07:13:51;;;;;;;11.60;5.82;;;;;;;-142.75;100.00;75668.84;5024514;28;20022;-62
2023/08/27 07:16:17;;;;;;;10.25;6.20;;;;;;;-142.75;100.00;75639.31;5024619;28;20572;-62
2023/08/27 07:18:43;;;;;;;8.70;5.80;;;;;;;-142.75;100.00;75629.47;5024602;28;20397;-62
2023/08/27 07:21:08;;;;;;;9.05;5.63;;;;;;;-142.75;100.00;75625.53;5024855;28;20025;-62
2023/08/27 07:23:33;;;;;;;10.48;5.03;;;;;;;-142.75;100.00;75649.16;5024533;28;20021;-62
2023/08/27 07:25:59;;;;;;;6.28;3.70;;;;;;;-142.75;100.00;75682.59;5024412;28;20028;-62
2023/08/27 07:28:24;;;;;;;8.13;3.25;;;;;;;-142.75;100.00;75684.56;5024758;28;20044;-63
2023/08/27 07:30:50;;;;;;;4.60;3.50;;;;;;;-142.75;100.00;75680.63;5024599;28;20021;-62
2023/08/27 07:33:16;;;;;;;4.20;2.20;;;;;;;-142.75;100.00;75725.91;5024861;28;20586;-63
2023/08/27 07:35:42;;;;;;;3.05;2.05;;;;;;;-142.75;100.00;75751.50;5024328;28;20048;-64
2023/08/27 07:38:07;;;;;;;6.13;2.28;;;;;;;-142.75;100.00;75731.81;5024577;28;20024;-62
2023/08/27 07:40:36;;;;;;;4.55;1.90;;;;;;;-142.75;100.00;75708.19;5022669;28;20048;-62
2023/08/27 07:43:03;;;;;;;4.15;2.00;;;;;;;-142.75;100.00;75694.41;5023665;28;20100;-62
2023/08/27 07:45:28;;;;;;;3.72;1.80;;;;;;;-142.75;100.00;75733.78;5026813;28;20029;-62
2023/08/27 07:47:54;;;;;;;3.40;1.58;;;;;;;-142.75;100.00;75737.72;5024127;28;20021;-62
2023/08/27 07:50:19;;;;;;;3.80;1.70;;;;;;;-142.75;100.00;75729.84;5024231;28;20108;-62
2023/08/27 07:52:44;;;;;;;4.88;1.60;;;;;;;-142.75;100.00;75749.53;5024533;28;20096;-63
2023/08/27 07:55:10;;;;;;;4.05;1.58;;;;;;;-142.75;100.00;75775.09;5024242;28;20025;-62
2023/08/27 07:57:35;;;;;;;4.32;1.02;;;;;;;-142.75;100.00;75802.66;5024414;28;20024;-63
2023/08/27 08:00:00;;;;;;;2.72;1.15;;;;;;;-142.75;100.00;75838.09;5022739;28;20021;-63
2023/08/27 08:02:26;;;;;;;3.75;1.13;;;;;;;-142.75;100.00;75863.66;5024111;28;20475;-63
2023/08/27 08:04:51;;;;;;;3.88;0.82;;;;;;;-142.75;100.00;75869.56;5021096;28;20021;-63
2023/08/27 08:07:17;;;;;;;3.92;1.23;;;;;;;-142.75;100.00;75920.75;5024138;28;20536;-63
2023/08/27 08:09:42;;;;;;;1.90;0.70;;;;;;;-142.75;100.00;75914.84;5023931;28;20021;-63
2023/08/27 08:12:07;;;;;;;1.40;0.82;;;;;;;-142.75;100.00;75924.69;5024442;28;20028;-64
2023/08/27 08:14:33;;;;;;;3.72;0.80;;;;;;;-142.75;100.00;75940.44;5023055;28;20021;-63
2023/08/27 08:16:58;;;;;;;2.78;0.60;;;;;;;-142.75;100.00;75936.50;5024140;28;20021;-62
2023/08/27 08:19:24;;;;;;;2.67;0.70;;;;;;;-142.75;100.00;75938.47;5023879;28;20063;-63
2023/08/27 08:21:49;;;;;;;1.10;0.55;;;;;;;-142.75;100.00;75942.41;5021407;28;20021;-62
2023/08/27 08:24:14;;;;;;;2.22;0.50;;;;;;;-142.75;100.00;75958.16;5024144;28;20036;-63
2023/08/27 08:26:40;;;;;;;1.25;0.70;;;;;;;-142.75;100.00;75944.38;5024865;28;20036;-63
2023/08/27 08:29:06;;;;;;;6.50;0.55;;;;;;;-142.75;100.00;75942.41;5026344;28;20049;-63
2023/08/27 08:31:31;;;;;;;1.42;0.55;;;;;;;-142.75;100.00;75960.13;5028113;28;20029;-63
2023/08/27 08:33:56;;;;;;;1.40;0.40;;;;;;;-142.75;100.00;75952.25;5028127;28;20445;-63
2023/08/27 08:36:22;;;;;;;1.02;0.40;;;;;;;-142.75;100.00;75973.88;5027728;28;20545;-62
2023/08/27 08:38:47;;;;;;;1.33;0.50;;;;;;;-142.75;100.00;75962.09;5024669;28;20033;-62
2023/08/27 08:41:17;;;;;;;1.30;0.40;;;;;;;-142.75;100.00;75975.84;5025164;28;20564;-61
2023/08/27 08:43:44;;;;;;;0.60;0.35;;;;;;;-142.75;100.00;75987.66;5024635;28;20040;-62
2023/08/27 08:46:13;;;;;;;0.65;0.30;;;;;;;-142.75;100.00;76019.16;5025886;28;20029;-62
2023/08/27 08:48:40;;;;;;;1.10;0.47;;;;;;;-142.75;100.00;76030.97;5026643;28;20029;-63
2023/08/27 08:51:07;;;;;;;0.80;0.22;;;;;;;-142.75;100.00;76003.41;5023918;28;20416;-62
2023/08/27 08:53:39;;;;;;;1.00;0.43;;;;;;;-142.75;100.00;76011.28;5026419;28;20013;-62
2023/08/27 08:56:10;;;;;;;0.63;0.20;;;;;;;-142.75;100.00;75997.50;5025438;28;20609;-62
2023/08/27 08:58:37;;;;;;;0.70;0.30;;;;;;;-142.75;100.00;75930.59;5024674;28;20029;-62
2023/08/27 09:01:04;;;;;;;1.90;0.40;;;;;;;-142.75;100.00;75863.66;5025892;28;20029;-63
2023/08/27 09:03:31;;;;;;;0.85;0.40;;;;;;;-142.75;100.00;75802.66;5026405;28;20021;-62
2023/08/27 09:05:58;;;;;;;1.48;0.50;;;;;;;-142.75;100.00;75755.44;5025481;28;20463;-62
2023/08/27 09:08:23;;;;;;;0.80;0.28;;;;;;;-142.75;100.00;75708.19;5026340;28;20489;-62
2023/08/27 09:10:49;;;;;;;1.60;0.45;;;;;;;-142.75;100.00;75698.34;5025255;28;20037;-63
2023/08/27 09:13:20;;;;;;;3.17;0.43;;;;;;;-142.75;100.00;75718.03;5025791;28;20022;-62
2023/08/27 09:15:47;;;;;;;1.35;0.40;;;;;;;-142.75;100.00;75716.06;5022540;28;20597;-63
2023/08/27 09:18:13;;;;;;;1.25;0.38;;;;;;;-142.75;100.00;75749.53;5025870;28;20037;-62
2023/08/27 09:20:38;;;;;;;0.65;0.38;;;;;;;-142.75;100.00;75739.69;5023672;28;20580;-63
2023/08/27 09:23:07;;;;;;;0.85;0.45;;;;;;;-142.75;100.00;75747.56;5023745;28;20025;-61
2023/08/27 09:25:33;;;;;;;2.63;0.50;;;;;;;-142.75;100.00;75749.53;5025382;28;20029;-62
2023/08/27 09:27:58;;;;;;;0.63;0.30;;;;;;;-142.75;100.00;75767.22;5025880;28;20080;-63
2023/08/27 09:30:25;;;;;;;1.10;0.60;;;;;;;-142.75;100.00;75798.72;5029902;28;20028;-61
2023/08/27 09:32:50;;;;;;;0.95;0.57;;;;;;;-142.75;100.00;75806.59;5027494;28;20067;-62
2023/08/27 09:35:15;;;;;;;1.10;0.60;;;;;;;-142.75;100.00;75820.38;5028329;28;20698;-62
2023/08/27 09:37:43;;;;;;;1.98;0.60;;;;;;;-142.75;100.00;75834.16;5026710;28;20030;-61
2023/08/27 09:40:10;;;;;;;1.20;0.60;;;;;;;-142.75;100.00;75853.84;5025944;28;20500;-63
2023/08/27 09:42:36;;;;;;;1.20;0.70;;;;;;;-142.75;100.00;75875.47;5026815;28;20025;-62
2023/08/27 09:45:02;;;;;;;2.22;0.63;;;;;;;-142.75;100.00;75851.88;5027158;28;20034;-63
2023/08/27 09:47:36;;;;;;;1.15;0.60;;;;;;;-142.75;100.00;75855.81;5025860;28;20036;-63
2023/08/27 09:50:14;;;;;;;1.10;0.50;;;;;;;-142.75;100.00;75877.44;5027833;28;20489;-63
2023/08/27 09:52:40;;;;;;;2.53;0.75;;;;;;;-142.75;100.00;75928.63;5021181;28;20090;-63
2023/08/27 09:55:13;;;;;;;1.65;0.70;;;;;;;-142.75;100.00;75944.38;5028648;28;20764;-63
2023/08/27 09:57:39;;;;;;;1.55;0.57;;;;;;;-142.75;100.00;75936.50;5025901;28;20029;-63
2023/08/27 10:00:11;;;;;;;2.80;0.68;;;;;;;-142.75;100.00;75958.16;5025982;28;20045;-64
2023/08/27 10:02:36;;;;;;;3.33;0.60;;;;;;;-142.75;100.00;75971.91;5025650;28;20034;-62
2023/08/27 10:05:01;;;;;;;2.70;0.63;;;;;;;-142.75;100.00;75967.97;5025294;28;20440;-62
2023/08/27 10:07:27;;;;;;;0.88;0.52;;;;;;;-142.75;100.00;75995.53;5027890;28;20592;-62
2023/08/27 10:09:54;;;;;;;2.63;0.70;;;;;;;-142.75;100.00;75952.25;5027977;28;20448;-62
2023/08/27 10:12:21;;;;;;;1.38;0.63;;;;;;;-142.75;100.00;75942.41;5026674;28;20053;-62
2023/08/27 10:14:47;;;;;;;3.05;0.60;;;;;;;-142.75;100.00;75932.56;5033959;28;20021;-61
2023/08/27 10:17:15;;;;;;;2.83;0.68;;;;;;;-142.75;100.00;75926.66;5027664;28;20048;-63
2023/08/27 10:19:41;;;;;;;1.63;0.60;;;;;;;-142.75;100.00;75954.22;5028000;28;20084;-62
2023/08/27 10:22:07;;;;;;;2.20;0.82;;;;;;;-142.75;100.00;75966.00;5027482;28;20113;-62
2023/08/27 10:24:33;;;;;;;1.30;0.52;;;;;;;-142.75;100.00;75956.19;5027246;28;20113;-60
2023/08/27 10:27:01;;;;;;;1.92;0.50;;;;;;;-142.75;100.00;75960.13;5026818;28;20053;-62
2023/08/27 10:29:27;;;;;;;4.22;1.48;;;;;;;-142.75;100.00;75964.03;5027659;28;20021;-62
2023/08/27 10:31:53;;;;;;;2.78;0.88;;;;;;;-142.75;100.00;75964.03;5027217;28;20057;-62
2023/08/27 10:34:20;;;;;;;3.20;0.55;;;;;;;-142.75;100.00;75958.16;5027187;28;20025;-62
2023/08/27 10:36:47;;;;;;;2.28;0.20;;;;;;;-142.75;100.00;75926.66;5026956;28;20079;-63
2023/08/27 10:39:14;;;;;;;0.88;0.47;;;;;;;-142.75;100.00;75859.72;5027371;28;20060;-62
2023/08/27 10:41:39;;;;;;;2.45;0.55;;;;;;;-142.75;100.00;75824.31;5025432;28;20033;-62
2023/08/27 10:44:08;;;;;;;3.05;0.55;;;;;;;-142.75;100.00;75818.41;5026500;28;20021;-62
2023/08/27 10:46:34;;;;;;;1.38;0.32;;;;;;;-142.75;100.00;75806.59;5027163;28;20021;-64
2023/08/27 10:48:59;;;;;;;0.73;0.30;;;;;;;-142.75;100.00;75759.38;5025891;28;20049;-63
2023/08/27 10:51:31;;;;;;;3.08;0.57;;;;;;;-142.75;100.00;75745.59;5025338;28;20040;-63
2023/08/27 10:53:58;;;;;;;3.95;0.63;;;;;;;-142.75;100.00;75712.13;5026646;28;20029;-63
2023/08/27 10:56:26;;;;;;;1.13;0.55;;;;;;;-142.75;100.00;75714.09;5025683;28;20036;-64
2023/08/27 10:58:52;;;;;;;5.28;0.70;;;;;;;-142.75;100.00;75763.28;5020210;28;20026;-63
2023/08/27 11:01:20;;;;;;;3.65;0.90;;;;;;;-142.75;100.00;75771.16;5025384;28;20112;-64
2023/08/27 11:03:58;;;;;;;5.40;0.75;;;;;;;-142.75;100.00;75788.88;5024888;28;20103;-64
2023/08/27 11:06:45;;;;;;;1.23;0.40;;;;;;;-142.75;100.00;75792.81;5021966;28;20025;-62